Time;durP1;ratioP1;P1;durP2;ratioP2;P2;SDS_P1;SDS_P2;PMS_P1;PMS_P2;Temp;Humidity;BMP_temperature;BMP_pressure;BME280_temperature;BME280_humidity;BME280_pressure;Samples;Min_cycle;Max_cycle;Signal;HPM_P1;HPM_P2
2022/05/23 00:01:53;;;;;;;2.67;1.50;;;15.00;99.90;;;;;;5060427;28;20051;-75
2022/05/23 00:04:20;;;;;;;1.80;1.45;;;14.90;99.90;;;;;;5076933;28;20436;-76
2022/05/23 00:06:48;;;;;;;3.72;1.95;;;14.90;99.90;;;;;;5076453;28;20453;-75
2022/05/23 00:09:15;;;;;;;3.20;1.52;;;14.90;99.90;;;;;;5069032;28;20044;-76
2022/05/23 00:11:42;;;;;;;1.95;1.35;;;14.80;99.90;;;;;;5070752;28;20041;-80
2022/05/23 00:14:08;;;;;;;1.35;1.23;;;14.90;99.90;;;;;;5071774;28;20036;-75
2022/05/23 00:16:41;;;;;;;1.20;1.10;;;14.90;99.90;;;;;;5066379;28;20420;-76
2022/05/23 00:19:09;;;;;;;2.17;1.20;;;14.80;99.90;;;;;;5040278;28;20044;-76
2022/05/23 00:21:36;;;;;;;3.15;1.48;;;14.80;99.90;;;;;;5072439;28;20039;-75
2022/05/23 00:24:03;;;;;;;1.10;1.00;;;14.80;99.90;;;;;;5072178;28;20032;-75
2022/05/23 00:26:29;;;;;;;1.27;1.17;;;14.70;99.90;;;;;;5073489;28;20032;-75
2022/05/23 00:28:55;;;;;;;1.77;1.67;;;14.60;99.90;;;;;;5055810;28;20074;-76
2022/05/23 00:31:21;;;;;;;2.08;1.27;;;14.60;99.90;;;;;;5064434;28;20454;-76
2022/05/23 00:36:34;;;;;;;2.40;1.65;;;14.40;99.90;;;;;;5070987;28;20041;-76
2022/05/23 00:39:01;;;;;;;1.60;1.50;;;14.30;99.90;;;;;;5055428;28;20040;-75
2022/05/23 00:44:23;;;;;;;2.30;1.90;;;14.30;99.90;;;;;;5061789;28;20478;-76
2022/05/23 00:47:20;;;;;;;2.28;1.23;;;14.20;99.90;;;;;;5068381;28;20028;-76
2022/05/23 00:49:46;;;;;;;1.42;1.33;;;14.10;99.90;;;;;;5056872;28;20045;-74
2022/05/23 00:52:28;;;;;;;2.88;2.00;;;14.10;99.90;;;;;;5065518;28;20044;-74
2022/05/23 00:54:57;;;;;;;2.00;1.80;;;14.00;99.90;;;;;;5048545;28;20041;-74
2022/05/23 00:57:33;;;;;;;1.45;1.35;;;14.00;99.90;;;;;;5066460;28;20032;-74
2022/05/23 01:00:01;;;;;;;1.88;1.70;;;14.00;99.90;;;;;;5070227;28;20039;-74
2022/05/23 01:02:36;;;;;;;1.33;1.23;;;13.90;99.90;;;;;;5067508;28;20024;-76
2022/05/23 01:05:08;;;;;;;3.67;1.92;;;13.90;99.90;;;;;;5058130;28;20057;-74
2022/05/23 01:07:34;;;;;;;3.08;2.00;;;13.90;99.90;;;;;;5047386;28;20044;-74
2022/05/23 01:10:00;;;;;;;1.60;1.50;;;13.90;99.90;;;;;;5057206;28;20048;-74
2022/05/23 01:12:27;;;;;;;2.47;1.60;;;13.80;99.90;;;;;;5091520;28;20051;-76
2022/05/23 01:14:59;;;;;;;4.93;1.65;;;13.70;99.90;;;;;;5087786;28;20071;-73
2022/05/23 01:17:30;;;;;;;3.10;2.38;;;13.60;99.90;;;;;;5091030;28;20040;-76
2022/05/23 01:20:02;;;;;;;1.60;1.50;;;13.50;99.90;;;;;;5091291;28;20044;-78
2022/05/23 01:22:46;;;;;;;2.17;1.38;;;13.50;99.90;;;;;;5086274;28;20036;-76
2022/05/23 01:25:31;;;;;;;1.70;1.60;;;13.40;99.90;;;;;;5090493;28;20051;-77
2022/05/23 01:27:59;;;;;;;1.75;1.60;;;13.40;99.90;;;;;;5090486;28;20515;-76
2022/05/23 01:30:26;;;;;;;1.40;1.30;;;13.30;99.90;;;;;;5088816;28;20052;-76
2022/05/23 01:33:08;;;;;;;1.70;1.60;;;13.30;99.90;;;;;;5089995;28;20373;-74
2022/05/23 01:35:35;;;;;;;2.15;1.55;;;13.40;99.90;;;;;;5087635;28;20032;-76
2022/05/23 01:38:02;;;;;;;4.40;1.50;;;13.60;99.90;;;;;;5089573;28;20039;-74
2022/05/23 01:41:00;;;;;;;1.92;1.30;;;13.60;99.90;;;;;;5068144;28;20041;-74
2022/05/23 01:43:27;;;;;;;4.80;2.00;;;13.60;99.90;;;;;;5090699;28;20489;-74
2022/05/23 01:46:22;;;;;;;1.55;1.45;;;13.50;99.90;;;;;;5091434;28;20461;-75
2022/05/23 01:49:24;;;;;;;1.73;1.52;;;13.50;99.90;;;;;;5069535;28;20040;-74
2022/05/23 01:51:51;;;;;;;1.95;1.75;;;13.40;99.90;;;;;;5085747;28;20051;-74
2022/05/23 01:54:22;;;;;;;3.55;1.80;;;13.40;99.90;;;;;;5090512;28;20055;-76
2022/05/23 01:56:50;;;;;;;1.98;1.63;;;13.50;99.90;;;;;;5089583;28;20039;-74
2022/05/23 02:02:14;;;;;;;3.55;1.20;;;13.50;99.90;;;;;;5081852;28;20048;-76
2022/05/23 02:04:41;;;;;;;1.92;1.40;;;13.60;99.90;;;;;;5089411;28;20044;-74
2022/05/23 02:07:13;;;;;;;1.70;1.50;;;13.70;99.90;;;;;;5085407;28;20040;-76
2022/05/23 02:09:41;;;;;;;1.60;1.30;;;13.60;99.90;;;;;;5085147;28;20039;-76
2022/05/23 02:12:18;;;;;;;1.25;1.15;;;13.60;99.90;;;;;;5035659;28;20071;-77
2022/05/23 02:14:47;;;;;;;1.05;0.95;;;13.60;99.90;;;;;;5054297;28;20047;-76
2022/05/23 02:17:41;;;;;;;1.15;1.05;;;13.70;99.90;;;;;;5052857;28;20386;-76
2022/05/23 02:20:09;;;;;;;1.58;1.30;;;13.70;99.90;;;;;;5066096;28;20478;-79
2022/05/23 02:22:36;;;;;;;3.08;1.35;;;13.70;99.90;;;;;;5067288;28;20043;-74
2022/05/23 02:25:16;;;;;;;1.65;1.30;;;13.70;99.90;;;;;;5052870;28;20040;-82
2022/05/23 02:27:42;;;;;;;1.58;1.38;;;13.60;99.90;;;;;;5065495;28;20442;-76
2022/05/23 02:30:09;;;;;;;1.65;1.55;;;13.60;99.90;;;;;;5052479;28;20040;-76
2022/05/23 02:32:35;;;;;;;1.73;1.58;;;13.50;99.90;;;;;;5049807;28;20282;-76
2022/05/23 02:35:08;;;;;;;1.67;1.23;;;13.50;99.90;;;;;;5048773;28;20041;-76
2022/05/23 02:37:34;;;;;;;4.78;1.77;;;13.50;99.90;;;;;;5068154;28;20021;-76
2022/05/23 02:40:03;;;;;;;1.42;1.30;;;13.50;99.90;;;;;;5052819;28;20055;-75
2022/05/23 02:42:31;;;;;;;1.73;1.30;;;13.50;99.90;;;;;;5052032;28;20044;-76
2022/05/23 02:44:58;;;;;;;2.30;1.35;;;13.60;99.90;;;;;;5050564;28;20048;-75
2022/05/23 02:47:28;;;;;;;5.17;1.97;;;13.70;99.90;;;;;;5049639;28;20033;-75
2022/05/23 02:49:56;;;;;;;1.83;1.63;;;13.80;99.90;;;;;;5048504;28;20298;-75
2022/05/23 02:52:44;;;;;;;1.92;1.33;;;13.90;99.90;;;;;;5041575;28;20052;-75
2022/05/23 02:55:14;;;;;;;1.10;1.00;;;13.80;99.90;;;;;;5052919;28;20119;-75
2022/05/23 02:57:40;;;;;;;1.83;1.58;;;13.80;99.90;;;;;;5067835;28;20052;-75
2022/05/23 03:00:20;;;;;;;1.67;1.58;;;13.80;99.90;;;;;;5067997;28;20055;-75
2022/05/23 03:03:03;;;;;;;3.53;1.73;;;13.80;99.90;;;;;;5046681;28;20481;-75
2022/05/23 03:05:56;;;;;;;1.48;1.38;;;13.80;99.90;;;;;;5051888;28;20044;-75
2022/05/23 03:08:25;;;;;;;2.30;1.55;;;13.90;99.90;;;;;;5052484;28;20037;-75
2022/05/23 03:10:56;;;;;;;1.77;1.60;;;14.00;99.90;;;;;;5063242;28;20051;-75
2022/05/23 03:13:23;;;;;;;2.25;1.67;;;14.00;99.90;;;;;;5081912;28;20048;-77
2022/05/23 03:15:50;;;;;;;4.72;1.52;;;14.10;99.90;;;;;;5088178;28;20480;-76
2022/05/23 03:18:17;;;;;;;2.20;1.80;;;14.10;99.90;;;;;;5082484;28;20067;-83
2022/05/23 03:20:44;;;;;;;2.22;1.80;;;14.10;99.90;;;;;;5083086;28;20043;-75
2022/05/23 03:28:44;;;;;;;2.33;1.90;;;14.20;99.90;;;;;;5089247;28;20040;-75
2022/05/23 03:31:11;;;;;;;2.10;1.85;;;14.20;99.90;;;;;;5086982;28;20412;-75
2022/05/23 03:33:37;;;;;;;3.00;1.80;;;14.20;99.90;;;;;;5090374;28;20040;-75
2022/05/23 03:36:04;;;;;;;4.55;2.22;;;14.20;99.90;;;;;;5092588;28;20044;-75
2022/05/23 03:38:30;;;;;;;1.92;1.77;;;14.20;99.90;;;;;;5092137;28;20051;-75
2022/05/23 03:41:04;;;;;;;3.08;2.78;;;14.30;99.90;;;;;;5091759;28;20036;-76
2022/05/23 03:43:31;;;;;;;2.92;2.58;;;14.40;99.90;;;;;;5090206;28;20047;-75
2022/05/23 03:46:09;;;;;;;4.65;2.85;;;14.50;99.90;;;;;;5086533;28;20040;-76
2022/05/23 03:48:36;;;;;;;5.43;2.70;;;14.50;99.90;;;;;;5093170;28;20031;-75
2022/05/23 03:51:04;;;;;;;3.05;2.75;;;14.60;99.90;;;;;;5091933;28;20484;-76
2022/05/23 03:53:31;;;;;;;5.47;2.80;;;14.70;99.90;;;;;;5076119;28;20047;-76
2022/05/23 03:56:02;;;;;;;13.55;3.28;;;14.80;99.90;;;;;;5093396;28;20040;-77
2022/05/23 03:58:34;;;;;;;4.85;3.45;;;15.00;99.90;;;;;;5092759;28;20051;-73
2022/05/23 04:01:21;;;;;;;1.98;1.48;;;15.10;99.90;;;;;;5091206;28;20048;-73
2022/05/23 04:03:52;;;;;;;3.35;2.38;;;15.30;99.90;;;;;;5087239;28;20452;-73
2022/05/23 04:06:20;;;;;;;3.20;2.80;;;15.60;99.90;;;;;;5093066;28;20036;-74
2022/05/23 04:09:06;;;;;;;2.65;2.45;;;15.80;99.90;;;;;;5093960;28;20043;-72
2022/05/23 04:11:35;;;;;;;5.15;2.90;;;15.90;99.90;;;;;;5086766;28;20047;-74
2022/05/23 04:14:02;;;;;;;6.75;2.88;;;16.00;99.90;;;;;;5091376;28;20347;-73
2022/05/23 04:16:33;;;;;;;2.22;1.85;;;15.90;99.90;;;;;;5076437;28;20031;-73
2022/05/23 04:19:05;;;;;;;3.72;2.53;;;15.90;99.90;;;;;;5093115;28;20467;-74
2022/05/23 04:21:34;;;;;;;3.40;2.53;;;15.90;99.90;;;;;;5080643;28;20036;-73
2022/05/23 04:24:03;;;;;;;3.20;2.30;;;15.80;99.90;;;;;;5094857;28;20051;-73
2022/05/23 04:26:29;;;;;;;5.65;3.08;;;15.80;99.90;;;;;;5093896;28;20044;-73
2022/05/23 04:28:55;;;;;;;7.25;3.30;;;15.60;99.90;;;;;;5092992;28;20039;-73
2022/05/23 04:31:21;;;;;;;5.00;2.92;;;15.50;99.90;;;;;;5084178;28;20122;-73
2022/05/23 04:37:04;;;;;;;5.13;3.40;;;15.40;99.90;;;;;;5090244;28;20047;-74
2022/05/23 04:39:42;;;;;;;6.82;4.18;;;15.20;99.90;;;;;;5092055;28;20039;-73
2022/05/23 04:42:08;;;;;;;3.80;2.70;;;15.10;99.90;;;;;;5086774;28;20036;-73
2022/05/23 04:44:34;;;;;;;5.63;3.60;;;14.90;99.90;;;;;;5087403;28;20413;-73
2022/05/23 04:49:50;;;;;;;6.40;3.80;;;14.40;99.90;;;;;;5097147;28;20040;-74
2022/05/23 04:52:35;;;;;;;6.55;4.32;;;14.30;99.90;;;;;;5086859;28;20059;-73
2022/05/23 04:55:02;;;;;;;5.60;4.38;;;14.30;99.90;;;;;;5086115;28;20370;-73
2022/05/23 04:57:28;;;;;;;5.68;4.50;;;14.20;99.90;;;;;;5080749;28;20040;-73
2022/05/23 04:59:55;;;;;;;5.45;4.93;;;14.20;99.90;;;;;;5091976;28;20473;-71
2022/05/23 05:02:25;;;;;;;6.40;5.10;;;14.20;99.90;;;;;;5084273;28;20058;-73
2022/05/23 05:04:56;;;;;;;4.85;4.35;;;14.10;99.90;;;;;;5091757;28;20461;-72
2022/05/23 05:07:24;;;;;;;5.65;5.10;;;14.00;99.90;;;;;;5090135;28;20465;-75
2022/05/23 05:09:52;;;;;;;5.47;4.97;;;14.00;99.90;;;;;;5088089;28;20083;-72
2022/05/23 05:12:18;;;;;;;6.75;5.68;;;14.00;99.90;;;;;;5049167;28;20060;-73
2022/05/23 05:14:46;;;;;;;5.60;5.10;;;14.00;99.90;;;;;;5049176;28;20036;-73
2022/05/23 05:17:12;;;;;;;5.95;5.20;;;14.00;99.90;;;;;;5070640;28;20036;-73
2022/05/23 05:19:40;;;;;;;8.48;5.65;;;14.10;99.90;;;;;;5050671;28;20049;-73
2022/05/23 05:22:25;;;;;;;9.50;6.28;;;14.20;99.90;;;;;;5060424;28;20040;-72
2022/05/23 05:25:22;;;;;;;5.78;5.28;;;14.30;99.90;;;;;;5052209;28;20036;-73
2022/05/23 05:28:04;;;;;;;7.95;5.28;;;14.40;99.90;;;;;;5054268;28;20044;-73
2022/05/23 05:30:39;;;;;;;6.28;5.57;;;14.30;99.90;;;;;;5068388;28;20384;-72
2022/05/23 05:33:15;;;;;;;6.53;5.80;;;14.30;99.90;;;;;;5050502;28;20055;-72
2022/05/23 05:35:52;;;;;;;5.40;4.72;;;14.40;99.90;;;;;;5062263;28;20051;-73
2022/05/23 05:38:30;;;;;;;8.52;5.00;;;14.40;99.90;;;;;;5068384;28;20043;-73
2022/05/23 05:41:10;;;;;;;7.88;5.22;;;14.50;99.90;;;;;;5064161;28;20473;-76
2022/05/23 05:43:43;;;;;;;7.47;5.65;;;14.70;99.90;;;;;;5065876;28;20040;-73
2022/05/23 05:46:28;;;;;;;5.60;4.82;;;14.90;99.90;;;;;;5053066;28;20047;-73
2022/05/23 05:49:20;;;;;;;5.18;4.65;;;15.20;99.90;;;;;;5053650;28;20051;-73
2022/05/23 05:51:50;;;;;;;6.13;4.30;;;15.50;99.90;;;;;;5048068;28;20045;-74
2022/05/23 05:54:25;;;;;;;4.35;3.95;;;15.90;99.90;;;;;;5055730;28;20481;-74
2022/05/23 05:57:12;;;;;;;4.55;3.10;;;16.10;99.90;;;;;;5053985;28;20504;-74
2022/05/23 05:59:39;;;;;;;4.40;2.90;;;16.20;99.90;;;;;;5070473;28;20482;-74
2022/05/23 06:02:07;;;;;;;5.18;2.83;;;16.50;99.90;;;;;;5045552;28;20044;-73
2022/05/23 06:04:35;;;;;;;3.90;3.47;;;16.60;99.90;;;;;;5048825;28;20469;-72
2022/05/23 06:13:00;;;;;;;3.17;2.30;;;16.70;99.90;;;;;;5067473;28;20052;-73
2022/05/23 06:15:43;;;;;;;4.03;3.10;;;16.70;99.90;;;;;;5043760;28;20438;-75
2022/05/23 06:18:10;;;;;;;5.28;2.75;;;16.70;99.90;;;;;;5046485;28;20041;-72
2022/05/23 06:20:39;;;;;;;4.05;3.28;;;17.50;99.90;;;;;;5049371;28;20294;-74
2022/05/23 06:23:06;;;;;;;2.95;2.53;;;18.20;99.90;;;;;;5068875;28;20048;-74
2022/05/23 06:25:37;;;;;;;4.38;3.03;;;19.60;99.90;;;;;;5052572;28;20393;-77
2022/05/23 06:28:07;;;;;;;;;;;20.30;99.90;;;;;;5049400;28;20055;-74
2022/05/23 06:30:33;;;;;;;4.65;3.08;;;20.10;99.90;;;;;;5053128;28;19912;-75
2022/05/23 06:33:06;;;;;;;6.80;3.45;;;20.50;99.90;;;;;;5035476;28;20044;-74
2022/05/23 06:35:47;;;;;;;3.17;2.47;;;21.00;99.90;;;;;;5053145;28;20044;-74
2022/05/23 06:38:13;;;;;;;2.72;2.08;;;21.20;99.90;;;;;;5035533;28;20049;-74
2022/05/23 06:41:07;;;;;;;2.85;2.28;;;20.60;99.60;;;;;;5054385;28;20040;-74
2022/05/23 06:44:02;;;;;;;3.42;2.53;;;20.50;99.90;;;;;;5071144;28;20040;-73
2022/05/23 06:47:04;;;;;;;5.10;1.80;;;20.10;99.90;;;;;;4990092;28;20038;-74
2022/05/23 06:49:50;;;;;;;4.68;2.40;;;19.10;99.90;;;;;;5065677;28;20036;-74
2022/05/23 06:52:23;;;;;;;6.22;2.28;;;19.60;99.90;;;;;;5040964;28;20041;-74
2022/05/23 06:55:08;;;;;;;3.85;2.45;;;19.40;99.90;;;;;;5065439;28;20051;-74
2022/05/23 06:57:42;;;;;;;3.22;2.83;;;19.90;99.90;;;;;;5050713;28;20036;-74
2022/05/23 07:00:10;;;;;;;10.63;3.38;;;20.20;99.90;;;;;;5050604;28;20068;-73
2022/05/23 07:02:39;;;;;;;3.95;2.92;;;20.30;99.90;;;;;;5050013;28;20044;-73
2022/05/23 07:14:00;;;;;;;3.65;1.92;;;20.90;98.90;;;;;;5093103;28;20055;-73
2022/05/23 07:16:29;;;;;;;3.28;2.08;;;20.30;99.90;;;;;;5090830;28;20036;-73
2022/05/23 07:18:56;;;;;;;4.13;2.63;;;21.30;98.20;;;;;;5088438;28;20028;-73
2022/05/23 07:21:32;;;;;;;2.45;1.77;;;21.90;96.50;;;;;;5072182;28;20430;-75
2022/05/23 07:24:12;;;;;;;2.30;1.58;;;21.80;95.50;;;;;;5093296;28;20052;-73
2022/05/23 07:26:43;;;;;;;7.47;2.08;;;21.70;94.20;;;;;;5103757;28;20036;-73
2022/05/23 07:29:10;;;;;;;3.38;1.92;;;21.00;95.80;;;;;;5093763;28;20164;-73
2022/05/23 07:31:37;;;;;;;1.70;1.55;;;20.90;97.30;;;;;;5090632;28;20036;-73
2022/05/23 07:34:03;;;;;;;2.72;2.05;;;21.00;95.20;;;;;;5094101;28;20032;-73
2022/05/23 07:36:30;;;;;;;3.08;1.83;;;20.50;97.70;;;;;;5086445;28;20092;-73
2022/05/23 07:39:02;;;;;;;2.08;1.75;;;20.00;98.30;;;;;;5089288;28;20048;-73
2022/05/23 07:41:49;;;;;;;3.50;1.67;;;19.70;98.10;;;;;;5091801;28;20044;-75
2022/05/23 07:44:20;;;;;;;2.55;1.85;;;19.50;99.40;;;;;;5093693;28;20048;-74
2022/05/23 07:46:47;;;;;;;2.80;1.90;;;19.50;99.10;;;;;;5093413;28;20427;-73
2022/05/23 07:49:17;;;;;;;3.55;1.42;;;19.40;98.00;;;;;;5087101;28;20062;-73
2022/05/23 07:51:57;;;;;;;1.35;1.15;;;19.50;98.50;;;;;;5092142;28;20051;-73
2022/05/23 08:03:14;;;;;;;8.63;1.88;;;20.60;95.40;;;;;;5103314;28;20055;-73
2022/05/23 08:05:44;;;;;;;4.82;1.38;;;20.80;93.90;;;;;;5088652;28;20035;-72
2022/05/23 08:08:11;;;;;;;1.50;1.30;;;21.40;94.30;;;;;;5092440;28;20040;-73
2022/05/23 08:10:38;;;;;;;1.35;1.25;;;21.80;91.80;;;;;;5091786;28;20048;-73
2022/05/23 08:13:09;;;;;;;1.90;1.48;;;22.30;91.50;;;;;;5090711;28;20075;-73
2022/05/23 08:15:39;;;;;;;1.65;1.55;;;22.60;90.60;;;;;;5090267;28;20036;-72
2022/05/23 08:18:10;;;;;;;5.05;1.50;;;22.50;88.50;;;;;;5093369;28;20054;-73
2022/05/23 08:20:46;;;;;;;1.20;1.10;;;22.10;90.60;;;;;;5092429;28;20032;-74
2022/05/23 08:23:13;;;;;;;1.83;1.30;;;22.30;90.40;;;;;;5087094;28;20044;-74
2022/05/23 08:25:50;;;;;;;1.15;1.00;;;22.10;90.40;;;;;;5087405;28;20040;-73
2022/05/23 08:28:17;;;;;;;1.48;1.38;;;22.20;90.00;;;;;;5092123;28;20039;-74
2022/05/23 08:30:43;;;;;;;1.15;1.05;;;22.10;90.70;;;;;;5090110;28;20044;-74
2022/05/23 08:33:26;;;;;;;2.78;1.70;;;21.90;91.50;;;;;;5081794;28;20041;-74
2022/05/23 08:36:02;;;;;;;1.90;1.55;;;21.50;90.60;;;;;;5082241;28;20469;-74
2022/05/23 08:38:30;;;;;;;1.63;1.00;;;21.20;92.50;;;;;;5096335;28;20055;-74
2022/05/23 08:41:14;;;;;;;1.38;1.10;;;21.20;91.90;;;;;;5091760;28;20047;-74
2022/05/23 08:44:19;;;;;;;2.03;1.17;;;22.40;90.10;;;;;;5091571;28;20040;-75
2022/05/23 08:47:06;;;;;;;1.00;0.95;;;23.50;81.40;;;;;;5098950;28;20032;-75
2022/05/23 08:49:45;;;;;;;1.13;1.02;;;24.30;76.00;;;;;;5091160;28;20047;-74
2022/05/23 08:52:42;;;;;;;1.38;1.08;;;23.70;76.50;;;;;;5107468;28;20044;-74
2022/05/23 08:55:46;;;;;;;2.97;1.38;;;23.70;78.90;;;;;;5091547;28;20499;-74
2022/05/23 08:58:49;;;;;;;2.33;1.60;;;23.40;78.80;;;;;;5089961;28;20043;-73
2022/05/23 09:01:19;;;;;;;1.40;1.20;;;23.30;78.90;;;;;;5089792;28;20476;-73
2022/05/23 09:04:00;;;;;;;1.25;1.15;;;23.70;76.50;;;;;;5069626;28;20055;-72
2022/05/23 09:06:31;;;;;;;3.22;1.73;;;23.20;77.30;;;;;;5079245;28;20485;-74
2022/05/23 09:09:01;;;;;;;2.25;1.40;;;23.20;80.20;;;;;;5080730;28;20047;-73
2022/05/23 09:11:41;;;;;;;2.72;1.42;;;23.90;76.70;;;;;;5066398;28;20041;-74
2022/05/23 09:14:12;;;;;;;2.75;1.75;;;24.80;74.10;;;;;;5053986;28;20048;-74
2022/05/23 09:16:48;;;;;;;3.83;1.67;;;24.90;72.80;;;;;;5066893;28;20416;-73
2022/05/23 09:19:31;;;;;;;6.82;1.48;;;25.00;73.40;;;;;;5072419;28;20495;-73
2022/05/23 09:22:34;;;;;;;3.10;1.60;;;25.40;72.80;;;;;;5072750;28;20044;-73
2022/05/23 09:25:03;;;;;;;5.90;1.60;;;25.00;70.00;;;;;;5067048;28;20032;-73
2022/05/23 09:27:37;;;;;;;1.98;1.63;;;25.20;72.50;;;;;;5067141;28;20024;-72
2022/05/23 09:30:26;;;;;;;1.42;1.33;;;25.70;70.00;;;;;;5054465;28;20037;-72
2022/05/23 09:33:01;;;;;;;;;;;26.50;67.60;;;;;;5070918;28;20093;-71
2022/05/23 09:35:46;;;;;;;2.65;1.50;;;26.30;67.20;;;;;;5066518;28;19908;-72
2022/05/23 09:38:29;;;;;;;1.30;1.20;;;26.60;65.70;;;;;;5054360;28;20384;-72
2022/05/23 09:47:44;;;;;;;2.72;1.80;;;26.70;66.30;;;;;;5053731;28;20041;-73
2022/05/23 09:49:52;;;;;;;4.03;1.88;;;25.80;67.20;;;;;;5053759;28;20036;-71
2022/05/23 09:52:27;;;;;;;1.42;1.27;;;26.40;68.30;;;;;;5067215;28;20062;-72
2022/05/23 09:55:01;;;;;;;1.60;1.27;;;27.20;65.80;;;;;;5069595;28;20040;-72
2022/05/23 09:57:33;;;;;;;1.35;1.25;;;27.50;64.00;;;;;;5069091;28;21598;-71
2022/05/23 10:00:52;;;;;;;5.15;1.88;;;27.20;64.50;;;;;;5071212;28;20040;-72
2022/05/23 10:03:19;;;;;;;3.00;1.87;;;27.10;63.20;;;;;;5046548;28;20531;-72
2022/05/23 10:05:50;;;;;;;2.30;1.30;;;27.20;63.20;;;;;;5070864;28;20282;-72
2022/05/23 10:08:33;;;;;;;2.00;1.60;;;25.90;65.00;;;;;;5046983;28;20043;-72
2022/05/23 10:11:07;;;;;;;3.28;1.60;;;25.70;67.20;;;;;;5070120;28;20067;-72
2022/05/23 10:13:37;;;;;;;1.80;1.58;;;26.10;66.50;;;;;;5064104;28;20048;-72
2022/05/23 10:16:09;;;;;;;2.65;1.95;;;26.20;67.10;;;;;;5066437;28;20055;-72
2022/05/23 10:19:04;;;;;;;2.90;1.58;;;26.60;65.90;;;;;;5071428;28;20032;-72
2022/05/23 10:21:40;;;;;;;1.92;1.50;;;26.60;66.10;;;;;;5064404;28;20044;-73
2022/05/23 10:24:24;;;;;;;2.15;1.65;;;26.40;65.70;;;;;;5068532;28;20051;-72
2022/05/23 10:26:56;;;;;;;5.68;1.52;;;25.80;66.90;;;;;;5070927;28;20036;-72
2022/05/23 10:29:36;;;;;;;2.75;1.60;;;25.90;67.80;;;;;;5066583;28;20044;-72
2022/05/23 10:32:09;;;;;;;4.20;1.60;;;26.30;67.20;;;;;;5066466;28;20024;-73
2022/05/23 10:34:45;;;;;;;3.38;1.60;;;26.50;67.40;;;;;;5068731;28;20032;-73
2022/05/23 10:37:17;;;;;;;2.80;1.15;;;26.30;67.30;;;;;;5054054;28;20048;-71
2022/05/23 10:42:35;;;;;;;3.90;2.00;;;25.30;68.60;;;;;;5060162;28;20040;-74
2022/05/23 10:45:17;;;;;;;4.90;1.77;;;25.00;69.10;;;;;;5070615;28;20039;-73
2022/05/23 10:48:10;;;;;;;1.58;1.25;;;25.50;70.00;;;;;;5071340;28;20116;-73
2022/05/23 10:51:08;;;;;;;2.47;1.55;;;25.50;69.80;;;;;;5065657;28;20033;-74
2022/05/23 10:54:09;;;;;;;1.50;1.40;;;25.20;69.80;;;;;;5067779;28;20044;-73
2022/05/23 10:56:51;;;;;;;;;;;24.20;73.30;;;;;;5065930;28;20063;-73
2022/05/23 10:59:57;;;;;;;2.50;1.75;;;23.90;75.70;;;;;;5077091;28;19923;-73
2022/05/23 11:03:00;;;;;;;10.23;1.75;;;24.30;75.20;;;;;;5056836;28;20048;-75
2022/05/23 11:05:47;;;;;;;2.70;1.60;;;24.00;75.80;;;;;;5065777;28;20044;-74
2022/05/23 11:08:30;;;;;;;1.75;1.50;;;24.00;77.90;;;;;;5053537;28;20029;-73
2022/05/23 11:11:01;;;;;;;3.10;1.10;;;24.40;76.70;;;;;;5069206;28;20060;-73
2022/05/23 11:13:51;;;;;;;4.82;1.60;;;24.30;76.10;;;;;;5065134;28;20045;-73
2022/05/23 11:16:34;;;;;;;8.05;1.30;;;24.10;76.10;;;;;;5046893;28;20025;-73
2022/05/23 11:19:38;;;;;;;1.55;1.35;;;23.90;78.20;;;;;;5071373;28;20043;-74
2022/05/23 11:22:19;;;;;;;2.63;1.73;;;24.20;77.80;;;;;;5069895;28;20377;-73
2022/05/23 11:25:06;;;;;;;1.52;1.25;;;24.60;76.70;;;;;;5067787;28;20470;-73
2022/05/23 11:36:09;;;;;;;3.00;2.13;;;24.40;78.90;;;;;;5063854;28;20029;-74
2022/05/23 11:38:45;;;;;;;3.90;1.50;;;24.30;78.00;;;;;;5061455;28;20470;-75
2022/05/23 11:41:40;;;;;;;4.68;2.03;;;24.30;79.90;;;;;;5060177;28;20520;-73
2022/05/23 11:44:43;;;;;;;2.38;1.55;;;24.20;80.20;;;;;;5069528;28;20103;-74
2022/05/23 11:47:25;;;;;;;1.83;1.55;;;24.10;83.20;;;;;;5067962;28;20077;-73
2022/05/23 11:50:23;;;;;;;4.93;2.08;;;24.10;84.30;;;;;;5066057;28;20052;-75
2022/05/23 11:53:12;;;;;;;7.03;2.10;;;23.90;83.60;;;;;;5060783;28;20389;-73
2022/05/23 11:55:50;;;;;;;1.45;1.35;;;24.10;79.40;;;;;;5063508;28;20040;-74
2022/05/23 11:58:18;;;;;;;2.67;1.80;;;24.30;78.50;;;;;;5072337;28;20084;-73
2022/05/23 12:01:03;;;;;;;2.90;1.73;;;24.20;79.10;;;;;;5069271;28;20123;-73
2022/05/23 12:04:07;;;;;;;3.17;1.95;;;24.00;79.90;;;;;;5065093;28;20044;-73
2022/05/23 12:06:41;;;;;;;4.00;2.22;;;23.90;81.80;;;;;;4991654;28;20057;-73
2022/05/23 12:09:13;;;;;;;3.72;1.73;;;24.00;82.70;;;;;;5057871;28;20040;-74
2022/05/23 12:11:43;;;;;;;6.28;1.60;;;23.90;83.00;;;;;;5068575;28;20049;-73
2022/05/23 12:14:19;;;;;;;2.65;2.13;;;23.90;83.30;;;;;;5053004;28;20520;-73
2022/05/23 12:17:05;;;;;;;1.90;1.50;;;23.70;85.20;;;;;;5073177;28;20036;-73
2022/05/23 12:19:40;;;;;;;4.85;2.28;;;23.80;85.30;;;;;;5066586;28;20473;-74
2022/05/23 12:22:20;;;;;;;1.95;1.42;;;23.90;85.40;;;;;;5072707;28;20036;-73
2022/05/23 12:25:08;;;;;;;2.08;1.88;;;24.10;85.70;;;;;;5069286;28;20048;-73
2022/05/23 12:28:00;;;;;;;2.05;1.42;;;24.00;85.40;;;;;;5065072;28;20374;-73
2022/05/23 12:30:27;;;;;;;3.55;2.53;;;23.80;85.90;;;;;;5066727;28;20028;-76
2022/05/23 12:33:04;;;;;;;2.78;2.00;;;23.70;86.20;;;;;;5061855;28;20470;-73
2022/05/23 12:35:34;;;;;;;3.90;1.92;;;23.70;87.00;;;;;;5066046;28;20029;-73
2022/05/23 12:38:15;;;;;;;2.20;1.65;;;23.40;89.00;;;;;;5065945;28;20031;-73
2022/05/23 12:40:51;;;;;;;3.08;2.33;;;23.60;89.60;;;;;;5071059;28;20028;-73
2022/05/23 12:43:43;;;;;;;2.35;1.50;;;23.70;87.90;;;;;;5074236;28;20040;-73
2022/05/23 12:46:35;;;;;;;4.13;2.42;;;23.70;88.30;;;;;;5072924;28;20033;-74
2022/05/23 12:49:59;;;;;;;2.15;1.73;;;23.80;87.20;;;;;;5073347;28;20051;-72
2022/05/23 12:53:07;;;;;;;3.58;2.10;;;24.20;86.10;;;;;;5006341;28;20045;-77
2022/05/23 12:55:48;;;;;;;2.05;1.48;;;24.30;83.60;;;;;;5073638;28;20473;-73
2022/05/23 12:58:43;;;;;;;3.38;1.95;;;24.20;82.30;;;;;;5075522;28;20477;-73
2022/05/23 13:01:12;;;;;;;3.22;2.10;;;24.10;82.10;;;;;;5073398;28;20040;-74
2022/05/23 13:03:54;;;;;;;2.78;1.75;;;24.30;81.80;;;;;;5061304;28;20060;-73
2022/05/23 13:06:44;;;;;;;;;;;24.10;80.50;;;;;;5061188;28;20049;-74
2022/05/23 13:09:18;;;;;;;2.72;1.92;;;24.00;79.40;;;;;;5060703;28;19919;-74
2022/05/23 13:11:57;;;;;;;2.03;1.85;;;23.70;82.40;;;;;;5068348;28;20138;-73
2022/05/23 13:14:24;;;;;;;6.45;1.90;;;23.50;82.70;;;;;;5035684;28;20067;-74
2022/05/23 13:16:55;;;;;;;7.00;1.90;;;23.50;84.80;;;;;;5072041;28;20449;-74
2022/05/23 13:22:24;;;;;;;2.58;1.65;;;23.90;82.80;;;;;;5063911;28;20028;-73
2022/05/23 13:24:56;;;;;;;2.35;1.73;;;24.10;82.80;;;;;;5061966;28;20048;-74
2022/05/23 13:27:30;;;;;;;5.78;2.00;;;24.10;81.70;;;;;;5070018;28;20449;-73
2022/05/23 13:30:07;;;;;;;1.90;1.50;;;24.20;81.40;;;;;;5072752;28;20036;-73
2022/05/23 13:32:33;;;;;;;3.40;2.08;;;24.30;80.90;;;;;;5051889;28;20033;-73
2022/05/23 13:35:01;;;;;;;2.88;1.80;;;24.70;79.90;;;;;;5065806;28;20480;-73
2022/05/23 13:37:27;;;;;;;2.47;1.90;;;25.00;78.90;;;;;;5068610;28;20029;-73
2022/05/23 13:39:54;;;;;;;3.08;2.00;;;24.90;76.80;;;;;;5068757;28;20032;-72
2022/05/23 13:42:23;;;;;;;1.80;1.33;;;24.60;78.90;;;;;;5064270;28;20036;-73
2022/05/23 13:44:50;;;;;;;5.60;1.67;;;24.40;78.90;;;;;;5072247;28;20040;-74
2022/05/23 13:47:27;;;;;;;4.32;2.10;;;24.80;80.00;;;;;;5068214;28;20032;-72
2022/05/23 13:50:08;;;;;;;3.83;2.60;;;25.20;78.50;;;;;;5072426;28;20032;-73
2022/05/23 13:52:39;;;;;;;2.58;1.90;;;25.30;77.70;;;;;;5069908;28;20033;-72
2022/05/23 13:55:11;;;;;;;10.40;2.55;;;25.40;76.40;;;;;;5049699;28;20039;-72
2022/05/23 13:57:47;;;;;;;2.92;1.77;;;25.40;75.50;;;;;;5054043;28;20028;-72
2022/05/23 14:00:21;;;;;;;2.88;2.00;;;25.10;75.30;;;;;;5067762;28;20040;-73
2022/05/23 14:02:55;;;;;;;3.97;2.15;;;25.00;76.00;;;;;;5063223;28;20044;-73
2022/05/23 14:05:23;;;;;;;3.53;1.90;;;24.90;77.10;;;;;;5061862;28;20029;-72
2022/05/23 14:07:53;;;;;;;3.72;1.88;;;24.90;76.30;;;;;;5067779;28;20028;-72
2022/05/23 14:10:27;;;;;;;3.47;2.10;;;24.80;77.40;;;;;;5063658;28;20143;-72
2022/05/23 14:12:56;;;;;;;3.05;1.67;;;25.50;76.10;;;;;;5066413;28;20393;-73
2022/05/23 14:15:27;;;;;;;2.22;1.55;;;25.90;73.40;;;;;;5066810;28;20032;-75
2022/05/23 14:17:55;;;;;;;2.92;2.13;;;25.90;72.20;;;;;;5071587;28;20032;-74
2022/05/23 14:20:24;;;;;;;3.08;1.92;;;26.10;72.30;;;;;;5065960;28;20024;-75
2022/05/23 14:23:11;;;;;;;1.98;1.35;;;26.10;70.10;;;;;;5068679;28;20045;-73
2022/05/23 14:25:40;;;;;;;4.07;2.03;;;26.00;71.20;;;;;;5065480;28;20036;-74
2022/05/23 14:28:15;;;;;;;6.82;2.22;;;25.90;71.30;;;;;;5066810;28;20438;-73
2022/05/23 14:30:44;;;;;;;2.63;2.03;;;26.10;71.30;;;;;;5070928;28;20037;-74
2022/05/23 14:33:30;;;;;;;2.15;1.58;;;25.80;70.60;;;;;;5068663;28;20044;-73
2022/05/23 14:36:01;;;;;;;10.30;2.13;;;25.60;71.30;;;;;;5062077;28;20079;-75